createdAt,value
2022-09-20T00:00:40.065Z,74.63
2022-09-20T00:03:06.586Z,74.36
2022-09-20T00:05:37.528Z,76.72
2022-09-20T00:08:04.897Z,77.85
2022-09-20T00:10:36.022Z,78.47
2022-09-20T00:13:02.679Z,78.41
2022-09-20T00:15:29.486Z,78.35
2022-09-20T00:17:56.205Z,77.53
2022-09-20T00:20:22.774Z,77.65
2022-09-20T00:22:49.652Z,77.44
2022-09-20T00:25:16.790Z,76.74
2022-09-20T00:27:43.485Z,77.00
2022-09-20T00:30:10.277Z,75.95
2022-09-20T00:32:36.681Z,75.73
2022-09-20T00:35:10.662Z,76.19
2022-09-20T00:37:38.833Z,75.14
2022-09-20T00:40:06.911Z,75.95
2022-09-20T00:42:33.627Z,76.02
2022-09-20T00:45:03.533Z,74.65
2022-09-20T00:47:29.927Z,74.42
2022-09-20T00:49:59.192Z,74.62
2022-09-20T00:52:26.745Z,74.96
2022-09-20T00:54:53.810Z,75.08
2022-09-20T00:57:20.270Z,75.01
2022-09-20T00:59:47.998Z,74.20
2022-09-20T01:02:21.283Z,74.40
2022-09-20T01:04:48.590Z,75.57
2022-09-20T01:07:16.380Z,76.61
2022-09-20T01:09:42.873Z,77.58
2022-09-20T01:12:12.314Z,76.86
2022-09-20T01:14:39.809Z,76.29
2022-09-20T01:17:07.330Z,74.89
2022-09-20T01:19:39.966Z,76.11
2022-09-20T01:22:12.813Z,76.50
2022-09-20T01:24:45.603Z,76.90
2022-09-20T01:27:30.670Z,76.71
2022-09-20T01:30:02.799Z,75.36
2022-09-20T01:32:35.576Z,74.10
2022-09-20T01:35:02.396Z,74.69
2022-09-20T01:37:38.369Z,75.15
2022-09-20T01:40:05.018Z,76.91
2022-09-20T01:42:36.683Z,77.86
2022-09-20T01:45:09.234Z,78.30
2022-09-20T01:47:35.625Z,77.31
2022-09-20T01:50:15.397Z,78.73
2022-09-20T01:52:41.810Z,77.45
2022-09-20T01:55:20.550Z,77.19
2022-09-20T01:58:02.251Z,77.53
2022-09-20T02:00:39.033Z,76.82
2022-09-20T02:03:23.950Z,75.49
2022-09-20T02:06:02.763Z,72.02
2022-09-20T02:08:38.021Z,74.43
2022-09-20T02:11:10.574Z,76.57
2022-09-20T02:13:40.066Z,77.67
2022-09-20T02:16:06.629Z,78.64
2022-09-20T02:18:45.378Z,77.42
2022-09-20T02:21:32.608Z,78.08
2022-09-20T02:24:08.970Z,79.76
2022-09-20T02:26:35.358Z,79.04
2022-09-20T02:29:01.783Z,79.77
2022-09-20T02:31:31.084Z,79.27
2022-09-20T02:34:06.601Z,79.50
2022-09-20T02:36:52.020Z,79.91
2022-09-20T02:39:24.797Z,80.26
2022-09-20T02:42:03.256Z,79.77
2022-09-20T02:44:42.009Z,80.50
2022-09-20T02:47:20.868Z,80.66
2022-09-20T02:49:56.191Z,80.88
2022-09-20T02:52:49.445Z,79.71
2022-09-20T02:55:16.146Z,79.06
2022-09-20T02:57:46.941Z,79.99
2022-09-20T03:00:25.193Z,80.24
2022-09-20T03:03:11.858Z,80.26
2022-09-20T03:05:53.385Z,80.86
2022-09-20T03:08:28.949Z,82.25
2022-09-20T03:11:01.450Z,81.67
2022-09-20T03:13:27.842Z,80.99
2022-09-20T03:16:04.148Z,80.48
2022-09-20T03:18:56.086Z,80.88
2022-09-20T03:21:36.429Z,80.24
2022-09-20T03:24:16.345Z,80.39
2022-09-20T03:26:42.840Z,80.45
2022-09-20T03:29:29.516Z,80.34
2022-09-20T03:31:56.044Z,79.79
2022-09-20T03:34:34.574Z,80.12
2022-09-20T03:37:19.728Z,80.31
2022-09-20T03:39:59.829Z,82.46
2022-09-20T03:42:28.431Z,81.67
2022-09-20T03:45:13.700Z,81.20
2022-09-20T03:47:40.137Z,80.99
2022-09-20T03:50:23.236Z,81.23
2022-09-20T03:52:57.694Z,80.46
2022-09-20T03:55:30.334Z,80.43
2022-09-20T03:57:59.928Z,80.32
2022-09-20T04:00:47.915Z,80.86
2022-09-20T04:03:22.731Z,79.67
2022-09-20T04:06:16.682Z,78.84
2022-09-20T04:09:01.233Z,79.88
2022-09-20T04:11:28.796Z,77.94
2022-09-20T04:14:02.958Z,78.08
2022-09-20T04:16:32.434Z,79.34
2022-09-20T04:19:11.581Z,80.01
2022-09-20T04:21:41.793Z,80.95
2022-09-20T04:24:08.194Z,79.82
2022-09-20T04:26:40.901Z,79.28
2022-09-20T04:29:26.509Z,81.72
2022-09-20T04:32:01.511Z,81.01
2022-09-20T04:35:06.809Z,80.17
2022-09-20T04:37:35.541Z,81.06
2022-09-20T04:40:21.029Z,81.06
2022-09-20T04:42:51.742Z,81.71
2022-09-20T04:45:37.186Z,82.10
2022-09-20T04:48:22.517Z,82.69
2022-09-20T04:50:55.090Z,82.38
2022-09-20T04:53:21.670Z,82.87
2022-09-20T04:56:02.003Z,83.24
2022-09-20T04:58:40.537Z,83.39
2022-09-20T05:01:17.112Z,82.67
2022-09-20T05:04:02.738Z,83.26
2022-09-20T05:06:38.846Z,83.52
2022-09-20T05:09:16.361Z,83.21
2022-09-20T05:12:18.420Z,83.10
2022-09-20T05:14:59.358Z,82.92
2022-09-20T05:17:44.824Z,81.97
2022-09-20T05:20:38.329Z,82.59
2022-09-20T05:23:23.934Z,81.73
2022-09-20T05:25:56.451Z,81.70
2022-09-20T05:28:28.680Z,81.49
2022-09-20T05:31:02.919Z,81.35
2022-09-20T05:33:37.821Z,81.76
2022-09-20T05:36:32.334Z,81.03
2022-09-20T05:39:03.513Z,80.03
2022-09-20T05:41:37.770Z,80.43
2022-09-20T05:44:28.858Z,79.30
2022-09-20T05:47:15.502Z,78.68
2022-09-20T05:49:51.230Z,77.49
2022-09-20T05:52:47.153Z,79.46
2022-09-20T05:55:19.758Z,78.18
2022-09-20T05:57:56.551Z,78.48
2022-09-20T06:00:29.016Z,77.52
2022-09-20T06:03:01.569Z,76.44
2022-09-20T06:05:47.111Z,78.65
2022-09-20T06:08:13.501Z,79.54
2022-09-20T06:10:55.297Z,78.73
2022-09-20T06:13:33.553Z,78.71
2022-09-20T06:16:01.544Z,79.21
2022-09-20T06:18:47.891Z,78.85
2022-09-20T06:21:31.961Z,79.85
2022-09-20T06:24:00.140Z,79.80
2022-09-20T06:26:29.318Z,77.95
2022-09-20T06:29:00.609Z,76.94
2022-09-20T06:31:27.356Z,76.63
2022-09-20T06:34:02.652Z,76.51
2022-09-20T06:36:55.367Z,76.68
2022-09-20T06:39:43.373Z,75.45
2022-09-20T06:42:10.564Z,75.21
2022-09-20T06:44:43.236Z,75.04
2022-09-20T06:47:13.229Z,72.67
2022-09-20T06:49:42.688Z,70.93
2022-09-20T06:52:14.211Z,71.73
2022-09-20T06:54:43.474Z,74.30
2022-09-20T06:57:10.462Z,73.24
2022-09-20T06:59:36.933Z,71.02
2022-09-20T07:02:03.601Z,72.26
2022-09-20T07:04:30.109Z,72.48
2022-09-20T07:07:00.070Z,74.20
2022-09-20T07:09:26.578Z,75.86
2022-09-20T07:11:53.017Z,73.95
2022-09-20T07:14:19.432Z,71.42
2022-09-20T07:16:45.927Z,70.00
2022-09-20T07:19:12.362Z,69.07
2022-09-20T07:21:38.822Z,67.99
2022-09-20T07:24:05.368Z,67.16
2022-09-20T07:26:31.949Z,67.43
2022-09-20T07:28:59.167Z,66.77
2022-09-20T07:31:26.672Z,66.02
2022-09-20T07:33:53.263Z,67.11
2022-09-20T07:36:19.800Z,64.82
2022-09-20T07:38:50.376Z,64.29
2022-09-20T07:41:19.047Z,58.08
2022-09-20T07:43:45.659Z,58.64
2022-09-20T07:46:13.641Z,57.48
2022-09-20T07:48:40.653Z,54.19
2022-09-20T07:51:09.029Z,53.17
2022-09-20T07:53:36.323Z,52.71
2022-09-20T07:56:05.550Z,52.64
2022-09-20T07:58:33.959Z,52.58
2022-09-20T08:01:01.983Z,52.07
2022-09-20T08:03:33.056Z,52.96
2022-09-20T08:06:07.151Z,53.94
2022-09-20T08:08:37.932Z,53.01
2022-09-20T08:11:06.565Z,54.30
2022-09-20T08:16:23.483Z,53.11
2022-09-20T08:18:57.626Z,52.11
2022-09-20T08:21:34.385Z,50.78
2022-09-20T08:24:00.991Z,47.21
2022-09-20T08:26:28.191Z,45.75
2022-09-20T08:28:55.941Z,45.29
2022-09-20T08:31:24.277Z,44.36
2022-09-20T08:33:51.324Z,40.93
2022-09-20T08:36:19.530Z,39.54
2022-09-20T08:41:39.047Z,42.76
2022-09-20T08:44:14.748Z,38.88
2022-09-20T08:46:47.527Z,38.79
2022-09-20T08:49:22.522Z,37.16
2022-09-20T08:51:50.659Z,36.26
2022-09-20T08:54:17.659Z,38.51
2022-09-20T08:56:49.758Z,37.92
2022-09-20T08:59:18.694Z,35.20
2022-09-20T09:01:45.805Z,35.18
2022-09-20T09:04:19.995Z,36.63
2022-09-20T09:06:46.906Z,36.64
2022-09-20T09:09:24.638Z,38.07
2022-09-20T09:11:51.857Z,37.28
2022-09-20T09:14:57.269Z,36.12
2022-09-20T09:17:28.041Z,38.08
2022-09-20T09:19:58.937Z,36.05
2022-09-20T09:22:25.328Z,34.18
2022-09-20T09:25:07.118Z,34.24
2022-09-20T09:27:35.095Z,33.57
2022-09-20T09:30:01.801Z,34.02
2022-09-20T09:32:30.892Z,31.52
2022-09-20T09:35:18.437Z,31.76
2022-09-20T09:37:52.911Z,33.20
2022-09-20T09:40:19.736Z,31.18
2022-09-20T09:42:50.191Z,31.17
2022-09-20T09:45:27.102Z,31.14
2022-09-20T09:47:54.678Z,30.89
2022-09-20T09:50:25.495Z,31.06
2022-09-20T09:53:02.989Z,32.27
2022-09-20T09:55:38.209Z,31.32
2022-09-20T09:58:16.004Z,30.25
2022-09-20T10:00:46.697Z,31.70
2022-09-20T10:03:19.398Z,30.75
2022-09-20T10:06:04.937Z,31.02
2022-09-20T10:08:43.730Z,29.96
2022-09-20T10:11:29.196Z,31.97
2022-09-20T10:13:55.695Z,29.42
2022-09-20T10:16:29.175Z,30.05
2022-09-20T10:19:03.434Z,29.13
2022-09-20T10:21:32.592Z,29.05
2022-09-20T10:24:04.044Z,30.51
2022-09-20T10:26:43.953Z,27.86
2022-09-20T10:29:39.766Z,28.90
2022-09-20T10:32:06.207Z,29.46
2022-09-20T10:34:44.960Z,28.52
2022-09-20T10:37:16.286Z,28.77
2022-09-20T10:39:45.911Z,28.56
2022-09-20T10:42:55.090Z,29.67
2022-09-20T10:48:35.470Z,28.19
2022-09-20T10:51:20.924Z,28.96
2022-09-20T10:53:58.896Z,27.16
2022-09-20T10:56:30.824Z,27.40
2022-09-20T10:59:17.273Z,29.07
2022-09-20T11:02:02.836Z,29.47
2022-09-20T11:04:35.578Z,32.65
2022-09-20T11:07:10.198Z,28.87
2022-09-20T11:09:38.939Z,29.76
2022-09-20T11:12:16.245Z,29.47
2022-09-20T11:14:48.353Z,29.88
2022-09-20T11:17:26.847Z,31.83
2022-09-20T11:20:07.075Z,32.64
2022-09-20T11:22:43.140Z,33.39
2022-09-20T11:25:20.024Z,36.64
2022-09-20T11:27:52.864Z,39.81
2022-09-20T11:30:19.336Z,41.12
2022-09-20T11:33:04.610Z,44.50
2022-09-20T11:35:34.527Z,42.48
2022-09-20T11:38:18.675Z,41.98
2022-09-20T11:41:14.231Z,43.57
2022-09-20T11:43:45.328Z,43.03
2022-09-20T11:46:15.726Z,41.90
2022-09-20T11:48:55.504Z,39.81
2022-09-20T11:51:34.281Z,39.90
2022-09-20T11:54:04.785Z,35.92
2022-09-20T11:56:33.914Z,36.15
2022-09-20T11:59:05.429Z,32.44
2022-09-20T12:01:37.468Z,33.57
2022-09-20T12:04:32.875Z,30.52
2022-09-20T12:07:10.517Z,31.91
2022-09-20T12:09:43.164Z,34.21
2022-09-20T12:12:18.478Z,34.96
2022-09-20T12:14:53.193Z,35.10
2022-09-20T12:17:38.353Z,34.99
2022-09-20T12:20:24.758Z,36.59
2022-09-20T12:22:51.303Z,35.71
2022-09-20T12:25:38.566Z,36.04
2022-09-20T12:28:13.720Z,36.39
2022-09-20T12:30:40.250Z,36.06
2022-09-20T12:33:18.290Z,36.07
2022-09-20T12:35:57.999Z,36.53
2022-09-20T12:38:31.187Z,37.77
2022-09-20T12:40:58.573Z,38.55
2022-09-20T12:43:25.409Z,36.96
2022-09-20T12:45:57.901Z,40.25
2022-09-20T12:48:27.879Z,38.07
2022-09-20T12:51:36.891Z,37.54
2022-09-20T12:54:08.088Z,36.30
2022-09-20T12:56:39.332Z,36.82
2022-09-20T12:59:18.597Z,35.83
2022-09-20T13:01:46.335Z,36.21
2022-09-20T13:04:32.270Z,35.99
2022-09-20T13:07:25.150Z,35.37
2022-09-20T13:09:51.666Z,33.24
2022-09-20T13:12:19.525Z,32.89
2022-09-20T13:14:47.173Z,33.50
2022-09-20T13:17:19.230Z,36.15
2022-09-20T13:19:46.700Z,36.28
2022-09-20T13:22:33.000Z,34.71
2022-09-20T13:25:02.714Z,34.47
2022-09-20T13:27:34.554Z,36.00
2022-09-20T13:30:20.222Z,35.15
2022-09-20T13:32:47.330Z,35.07
2022-09-20T13:35:24.232Z,35.18
2022-09-20T13:37:56.474Z,36.93
2022-09-20T13:40:33.286Z,35.49
2022-09-20T13:43:21.988Z,33.94
2022-09-20T13:45:52.221Z,33.21
2022-09-20T13:48:18.694Z,34.05
2022-09-20T13:50:49.060Z,33.70
2022-09-20T13:53:33.549Z,32.89
2022-09-20T13:56:10.069Z,31.73
2022-09-20T13:58:39.442Z,31.26
2022-09-20T14:01:09.197Z,32.20
2022-09-20T14:03:36.125Z,31.81
2022-09-20T14:06:07.854Z,31.52
2022-09-20T14:08:40.589Z,30.91
2022-09-20T14:11:08.617Z,31.93
2022-09-20T14:13:40.731Z,32.17
2022-09-20T14:16:07.814Z,29.29
2022-09-20T14:18:35.446Z,28.90
2022-09-20T14:21:02.322Z,30.17
2022-09-20T14:23:29.762Z,33.62
2022-09-20T14:26:05.814Z,32.41
2022-09-20T14:28:32.425Z,33.69
2022-09-20T14:31:07.293Z,35.28
2022-09-20T14:33:34.128Z,36.24
2022-09-20T14:36:00.848Z,36.77
2022-09-20T14:38:27.562Z,35.09
2022-09-20T14:40:54.126Z,33.88
2022-09-20T14:43:20.554Z,35.09
2022-09-20T14:45:51.888Z,34.90
2022-09-20T14:48:18.403Z,35.50
2022-09-20T14:50:46.948Z,35.62
2022-09-20T14:53:29.601Z,34.96
2022-09-20T14:56:05.250Z,34.75
2022-09-20T14:58:32.169Z,35.86
2022-09-20T15:01:05.698Z,34.78
2022-09-20T15:03:40.712Z,36.29
2022-09-20T15:06:11.250Z,36.00
2022-09-20T15:08:40.774Z,35.74
2022-09-20T15:11:19.890Z,34.92
2022-09-20T15:13:46.546Z,34.57
2022-09-20T15:16:14.638Z,35.36
2022-09-20T15:18:42.413Z,36.01
2022-09-20T15:21:10.911Z,35.44
2022-09-20T15:23:38.830Z,37.82
2022-09-20T15:26:05.943Z,36.93
2022-09-20T15:28:33.354Z,37.50
2022-09-20T15:30:59.861Z,37.90
2022-09-20T15:33:29.121Z,37.44
2022-09-20T15:35:55.519Z,37.90
2022-09-20T15:38:22.805Z,38.37
2022-09-20T15:40:49.611Z,38.98
2022-09-20T15:43:17.598Z,39.89
2022-09-20T15:45:52.795Z,39.27
2022-09-20T15:48:21.507Z,39.59
2022-09-20T15:51:07.598Z,39.29
2022-09-20T15:53:35.420Z,40.41
2022-09-20T15:56:03.494Z,40.46
2022-09-20T15:58:35.458Z,40.49
2022-09-20T16:01:06.333Z,41.14
2022-09-20T16:03:33.269Z,41.01
2022-09-20T16:06:04.301Z,41.72
2022-09-20T16:08:35.137Z,42.10
2022-09-20T16:11:02.406Z,42.96
2022-09-20T16:13:28.949Z,44.09
2022-09-20T16:15:56.006Z,44.12
2022-09-20T16:18:41.181Z,44.27
2022-09-20T16:21:08.625Z,45.10
2022-09-20T16:23:37.309Z,45.43
2022-09-20T16:26:03.749Z,45.70
2022-09-20T16:28:30.290Z,45.50
2022-09-20T16:30:57.433Z,45.49
2022-09-20T16:33:23.881Z,45.18
2022-09-20T16:35:50.300Z,44.44
2022-09-20T16:38:16.724Z,44.78
2022-09-20T16:40:43.126Z,44.52
2022-09-20T16:43:09.613Z,43.99
2022-09-20T16:45:36.170Z,44.18
2022-09-20T16:48:08.306Z,43.36
2022-09-20T16:50:35.183Z,44.46
2022-09-20T16:53:01.686Z,43.75
2022-09-20T16:55:28.106Z,44.43
2022-09-20T16:57:54.513Z,44.06
2022-09-20T17:00:21.808Z,44.17
2022-09-20T17:02:51.443Z,44.57
2022-09-20T17:05:17.882Z,44.88
2022-09-20T17:07:44.667Z,44.04
2022-09-20T17:10:11.262Z,45.25
2022-09-20T17:12:46.656Z,45.07
2022-09-20T17:15:13.655Z,45.89
2022-09-20T17:17:40.123Z,45.80
2022-09-20T17:20:07.726Z,45.83
2022-09-20T17:22:34.234Z,46.00
2022-09-20T17:25:00.662Z,46.28
2022-09-20T17:27:27.101Z,45.66
2022-09-20T17:29:53.558Z,47.35
2022-09-20T17:32:20.437Z,47.45
2022-09-20T17:34:46.963Z,48.58
2022-09-20T17:37:13.444Z,48.54
2022-09-20T17:39:40.841Z,48.82
2022-09-20T17:42:07.346Z,48.52
2022-09-20T17:44:37.543Z,49.07
2022-09-20T17:47:04.281Z,49.75
2022-09-20T17:49:31.389Z,49.35
2022-09-20T17:51:57.850Z,49.53
2022-09-20T17:54:24.756Z,49.99
2022-09-20T17:56:53.248Z,50.11
2022-09-20T17:59:20.278Z,50.51
2022-09-20T18:01:47.906Z,49.71
2022-09-20T18:04:14.492Z,49.99
2022-09-20T18:06:48.530Z,50.01
2022-09-20T18:09:16.450Z,49.94
2022-09-20T18:11:46.269Z,49.86
2022-09-20T18:14:15.675Z,49.26
2022-09-20T18:16:44.195Z,49.74
2022-09-20T18:19:11.073Z,50.27
2022-09-20T18:21:38.242Z,51.04
2022-09-20T18:24:05.523Z,51.23
2022-09-20T18:26:32.734Z,51.26
2022-09-20T18:29:02.226Z,50.91
2022-09-20T18:31:44.610Z,51.79
2022-09-20T18:34:17.753Z,52.39
2022-09-20T18:36:52.853Z,53.11
2022-09-20T18:39:20.501Z,54.66
2022-09-20T18:41:47.582Z,53.56
2022-09-20T18:44:14.387Z,53.65
2022-09-20T18:46:41.538Z,55.97
2022-09-20T18:49:09.361Z,55.46
2022-09-20T18:51:39.677Z,54.26
2022-09-20T18:54:09.027Z,56.28
2022-09-20T18:56:36.169Z,56.50
2022-09-20T18:59:06.123Z,56.81
2022-09-20T19:01:52.609Z,57.02
2022-09-20T19:04:31.317Z,56.94
2022-09-20T19:07:03.954Z,55.55
2022-09-20T19:09:45.641Z,54.52
2022-09-20T19:12:34.060Z,56.09
2022-09-20T19:15:00.469Z,57.00
2022-09-20T19:17:39.272Z,57.75
2022-09-20T19:20:19.673Z,56.51
2022-09-20T19:23:01.767Z,56.48
2022-09-20T19:25:32.669Z,56.80
2022-09-20T19:27:59.160Z,56.51
2022-09-20T19:30:25.784Z,58.26
2022-09-20T19:32:52.323Z,57.78
2022-09-20T19:35:21.877Z,57.71
2022-09-20T19:38:15.358Z,58.30
2022-09-20T19:40:46.421Z,58.84
2022-09-20T19:43:25.278Z,57.61
2022-09-20T19:46:13.270Z,58.33
2022-09-20T19:48:48.573Z,59.64
2022-09-20T19:51:16.951Z,59.28
2022-09-20T19:53:43.561Z,59.46
2022-09-20T19:56:12.849Z,58.35
2022-09-20T19:58:44.943Z,56.72
2022-09-20T20:01:11.741Z,56.59
2022-09-20T20:03:38.945Z,57.32
2022-09-20T20:06:20.380Z,56.50
2022-09-20T20:08:54.948Z,56.40
2022-09-20T20:11:40.203Z,55.63
2022-09-20T20:14:11.937Z,55.04
2022-09-20T20:16:57.329Z,55.61
2022-09-20T20:19:44.773Z,54.41
2022-09-20T20:22:14.182Z,54.74
2022-09-20T20:24:50.033Z,53.78
2022-09-20T20:27:16.452Z,53.92
2022-09-20T20:29:42.893Z,54.75
2022-09-20T20:32:09.795Z,54.43
2022-09-20T20:34:37.032Z,55.92
2022-09-20T20:37:04.926Z,56.82
2022-09-20T20:39:32.103Z,57.64
2022-09-20T20:42:02.295Z,56.73
2022-09-20T20:44:35.977Z,55.99
2022-09-20T20:47:06.282Z,58.30
2022-09-20T20:49:33.157Z,58.64
2022-09-20T20:52:04.508Z,57.28
2022-09-20T20:54:31.817Z,58.31
2022-09-20T20:56:59.114Z,58.66
2022-09-20T20:59:25.780Z,58.29
2022-09-20T21:01:52.260Z,60.58
2022-09-20T21:04:18.737Z,62.24
2022-09-20T21:06:45.243Z,62.41
2022-09-20T21:09:12.413Z,61.33
2022-09-20T21:11:43.654Z,61.75
2022-09-20T21:14:10.663Z,61.53
2022-09-20T21:16:38.201Z,62.58
2022-09-20T21:19:05.633Z,63.15
2022-09-20T21:21:33.450Z,63.07
2022-09-20T21:24:01.383Z,62.67
2022-09-20T21:26:31.866Z,63.93
2022-09-20T21:28:59.582Z,65.07
2022-09-20T21:31:27.730Z,65.38
2022-09-20T21:33:55.450Z,64.92
2022-09-20T21:36:22.921Z,66.76
2022-09-20T21:38:49.449Z,66.04
2022-09-20T21:41:17.715Z,68.19
2022-09-20T21:43:45.735Z,67.07
2022-09-20T21:46:17.654Z,67.53
2022-09-20T21:48:44.392Z,68.69
2022-09-20T21:51:12.043Z,69.23
2022-09-20T21:53:39.325Z,70.22
2022-09-20T21:56:07.203Z,69.92
2022-09-20T21:58:34.139Z,69.99
2022-09-20T22:01:02.228Z,70.05
2022-09-20T22:03:35.415Z,70.42
2022-09-20T22:06:06.165Z,70.64
2022-09-20T22:08:33.137Z,71.42
2022-09-20T22:10:59.606Z,71.52
2022-09-20T22:13:26.022Z,70.62
2022-09-20T22:15:52.568Z,70.69
2022-09-20T22:18:19.029Z,70.33
2022-09-20T22:20:45.544Z,71.14
2022-09-20T22:23:12.010Z,70.68
2022-09-20T22:25:38.413Z,69.79
2022-09-20T22:28:04.830Z,70.03
2022-09-20T22:30:31.294Z,70.01
2022-09-20T22:32:57.741Z,70.55
2022-09-20T22:35:24.365Z,69.86
2022-09-20T22:37:50.812Z,69.43
2022-09-20T22:40:17.298Z,69.46
2022-09-20T22:42:43.736Z,70.43
2022-09-20T22:45:10.406Z,69.14
2022-09-20T22:47:36.845Z,68.43
2022-09-20T22:50:03.323Z,67.89
2022-09-20T22:52:29.845Z,69.61
2022-09-20T22:54:56.406Z,69.14
2022-09-20T22:57:22.846Z,70.57
2022-09-20T22:59:49.278Z,71.83
2022-09-20T23:02:15.691Z,72.80
2022-09-20T23:04:42.106Z,73.60
2022-09-20T23:07:08.902Z,73.76
2022-09-20T23:09:35.361Z,74.02
2022-09-20T23:12:01.824Z,73.94
2022-09-20T23:14:28.265Z,74.58
2022-09-20T23:16:54.693Z,74.32
2022-09-20T23:19:21.216Z,74.70
2022-09-20T23:21:47.670Z,75.27
2022-09-20T23:24:15.078Z,74.82
2022-09-20T23:26:42.222Z,75.72
2022-09-20T23:29:10.896Z,75.89
2022-09-20T23:31:38.284Z,76.00
2022-09-20T23:34:06.308Z,73.95
2022-09-20T23:36:34.052Z,74.29
2022-09-20T23:39:00.607Z,74.86
2022-09-20T23:41:27.774Z,75.51
2022-09-20T23:43:54.393Z,74.84
2022-09-20T23:46:22.229Z,75.11
2022-09-20T23:48:50.390Z,75.29
2022-09-20T23:51:18.661Z,76.23
2022-09-20T23:53:45.106Z,76.77
2022-09-20T23:56:12.401Z,77.06
2022-09-20T23:58:39.909Z,76.20
